sensor_id;sensor_type;location;lat;lon;timestamp;pressure;altitude;pressure_sealevel;temperature;humidity
43621;BME280;29213;50.770;7.298;2022-10-30T00:01:18;101023.19;;;12.89;65.24
43621;BME280;29213;50.770;7.298;2022-10-30T00:03:43;100792.00;;;11.45;65.13
43621;BME280;29213;50.770;7.298;2022-10-30T00:06:09;101061.78;;;13.20;64.51
43621;BME280;29213;50.770;7.298;2022-10-30T00:08:34;100910.00;;;12.15;64.54
43621;BME280;29213;50.770;7.298;2022-10-30T00:11:11;101011.16;;;12.85;65.08
43621;BME280;29213;50.770;7.298;2022-10-30T00:13:38;101038.06;;;13.08;65.06
43621;BME280;29213;50.770;7.298;2022-10-30T00:16:06;101052.25;;;13.17;64.92
43621;BME280;29213;50.770;7.298;2022-10-30T00:18:34;100932.22;;;12.33;64.87
43621;BME280;29213;50.770;7.298;2022-10-30T00:21:04;100922.34;;;12.33;64.92
43621;BME280;29213;50.770;7.298;2022-10-30T00:23:30;101048.75;;;13.08;65.13
43621;BME280;29213;50.770;7.298;2022-10-30T00:25:55;101078.50;;;13.22;65.40
43621;BME280;29213;50.770;7.298;2022-10-30T00:28:21;101047.09;;;13.07;65.25
43621;BME280;29213;50.770;7.298;2022-10-30T00:30:46;101002.47;;;12.83;65.09
43621;BME280;29213;50.770;7.298;2022-10-30T00:33:11;100979.44;;;12.65;65.01
43621;BME280;29213;50.770;7.298;2022-10-30T00:35:37;100971.09;;;12.60;64.82
43621;BME280;29213;50.770;7.298;2022-10-30T00:38:02;101051.59;;;13.07;65.03
43621;BME280;29213;50.770;7.298;2022-10-30T00:40:28;101055.44;;;13.13;64.97
43621;BME280;29213;50.770;7.298;2022-10-30T00:42:53;101102.88;;;13.35;64.99
43621;BME280;29213;50.770;7.298;2022-10-30T00:45:19;100989.78;;;12.68;65.20
43621;BME280;29213;50.770;7.298;2022-10-30T00:47:53;101011.16;;;12.85;65.24
43621;BME280;29213;50.770;7.298;2022-10-30T00:50:26;101090.00;;;13.39;65.15
43621;BME280;29213;50.770;7.298;2022-10-30T00:55:29;101101.72;;;13.38;65.20
43621;BME280;29213;50.770;7.298;2022-10-30T00:57:57;101093.84;;;13.36;65.24
43621;BME280;29213;50.770;7.298;2022-10-30T01:00:25;100847.56;;;11.83;65.01
43621;BME280;29213;50.770;7.298;2022-10-30T01:02:52;101092.03;;;13.37;64.92
43621;BME280;29213;50.770;7.298;2022-10-30T01:05:22;101092.53;;;13.24;64.86
43621;BME280;29213;50.770;7.298;2022-10-30T01:07:49;101057.09;;;13.14;64.87
43621;BME280;29213;50.770;7.298;2022-10-30T01:10:15;101044.41;;;13.07;64.67
43621;BME280;29213;50.770;7.298;2022-10-30T01:12:42;101094.53;;;13.39;64.75
43621;BME280;29213;50.770;7.298;2022-10-30T01:15:09;100937.56;;;12.49;64.74
43621;BME280;29213;50.770;7.298;2022-10-30T01:18:07;101046.25;;;13.07;64.16
43621;BME280;29213;50.770;7.298;2022-10-30T01:20:58;101079.13;;;13.32;64.79
43621;BME280;29213;50.770;7.298;2022-10-30T01:23:47;101066.13;;;13.21;64.80
43621;BME280;29213;50.770;7.298;2022-10-30T01:29:11;100852.09;;;11.83;64.96
43621;BME280;29213;50.770;7.298;2022-10-30T01:31:49;101096.72;;;13.27;64.61
43621;BME280;29213;50.770;7.298;2022-10-30T01:34:36;101092.69;;;13.22;64.53
43621;BME280;29213;50.770;7.298;2022-10-30T01:37:13;101043.41;;;12.92;64.67
43621;BME280;29213;50.770;7.298;2022-10-30T01:39:40;101028.38;;;12.74;64.69
43621;BME280;29213;50.770;7.298;2022-10-30T01:45:06;101034.88;;;12.72;64.67
43621;BME280;29213;50.770;7.298;2022-10-30T01:47:45;101028.06;;;12.61;64.90
43621;BME280;29213;50.770;7.298;2022-10-30T01:50:25;101012.16;;;12.51;64.82
43621;BME280;29213;50.770;7.298;2022-10-30T01:53:02;100968.78;;;12.24;64.86
43621;BME280;29213;50.770;7.298;2022-10-30T01:58:09;101084.31;;;13.01;64.78
43621;BME280;29213;50.770;7.298;2022-10-30T02:00:38;101029.69;;;12.70;64.66
43621;BME280;29213;50.770;7.298;2022-10-30T02:03:05;100904.28;;;11.85;64.91
43621;BME280;29213;50.770;7.298;2022-10-30T02:05:43;101086.50;;;12.97;64.73
43621;BME280;29213;50.770;7.298;2022-10-30T02:08:10;101039.06;;;12.74;64.74
43621;BME280;29213;50.770;7.298;2022-10-30T02:10:36;100998.31;;;12.47;64.76
43621;BME280;29213;50.770;7.298;2022-10-30T02:13:03;101009.16;;;12.46;64.94
43621;BME280;29213;50.770;7.298;2022-10-30T02:15:29;101051.78;;;12.72;64.72
43621;BME280;29213;50.770;7.298;2022-10-30T02:17:56;100934.03;;;11.99;64.67
43621;BME280;29213;50.770;7.298;2022-10-30T02:20:22;101077.50;;;12.90;64.90
43621;BME280;29213;50.770;7.298;2022-10-30T02:22:48;101088.19;;;12.90;65.05
43621;BME280;29213;50.770;7.298;2022-10-30T02:25:14;100936.19;;;11.95;64.99
43621;BME280;29213;50.770;7.298;2022-10-30T02:27:41;101092.84;;;12.88;64.93
43621;BME280;29213;50.770;7.298;2022-10-30T02:30:08;100951.53;;;12.01;64.93
43621;BME280;29213;50.770;7.298;2022-10-30T02:32:33;101082.00;;;12.81;64.90
43621;BME280;29213;50.770;7.298;2022-10-30T02:34:59;101051.56;;;12.57;65.01
43621;BME280;29213;50.770;7.298;2022-10-30T02:37:24;100917.59;;;11.77;65.02
43621;BME280;29213;50.770;7.298;2022-10-30T02:39:50;100864.88;;;11.46;64.86
43621;BME280;29213;50.770;7.298;2022-10-30T02:42:15;100973.91;;;12.09;64.83
43621;BME280;29213;50.770;7.298;2022-10-30T02:44:41;100945.63;;;11.89;64.90
43621;BME280;29213;50.770;7.298;2022-10-30T02:47:06;101038.22;;;12.49;64.95
43621;BME280;29213;50.770;7.298;2022-10-30T02:49:32;100894.56;;;11.59;64.82
43621;BME280;29213;50.770;7.298;2022-10-30T02:51:57;101014.00;;;12.34;65.03
43621;BME280;29213;50.770;7.298;2022-10-30T02:54:23;100943.63;;;11.83;65.19
43621;BME280;29213;50.770;7.298;2022-10-30T02:56:48;100965.88;;;12.00;65.20
43621;BME280;29213;50.770;7.298;2022-10-30T02:59:14;100931.94;;;11.76;65.29
43621;BME280;29213;50.770;7.298;2022-10-30T03:01:39;100916.03;;;11.49;65.49
43621;BME280;29213;50.770;7.298;2022-10-30T03:04:04;100981.41;;;11.97;65.63
43621;BME280;29213;50.770;7.298;2022-10-30T03:06:30;101029.50;;;12.22;65.81
43621;BME280;29213;50.770;7.298;2022-10-30T03:08:55;101070.13;;;12.50;65.56
43621;BME280;29213;50.770;7.298;2022-10-30T03:11:21;101028.84;;;12.28;65.37
43621;BME280;29213;50.770;7.298;2022-10-30T03:13:47;100980.91;;;11.93;65.22
43621;BME280;29213;50.770;7.298;2022-10-30T03:16:18;101058.41;;;12.35;65.32
43621;BME280;29213;50.770;7.298;2022-10-30T03:18:45;101034.53;;;12.25;65.08
43621;BME280;29213;50.770;7.298;2022-10-30T03:21:16;100982.34;;;11.87;64.92
43621;BME280;29213;50.770;7.298;2022-10-30T03:23:42;100921.88;;;11.53;64.71
43621;BME280;29213;50.770;7.298;2022-10-30T03:26:08;100935.41;;;11.60;64.85
43621;BME280;29213;50.770;7.298;2022-10-30T03:28:33;100881.63;;;11.21;64.75
43621;BME280;29213;50.770;7.298;2022-10-30T03:31:04;101072.25;;;12.38;64.96
43621;BME280;29213;50.770;7.298;2022-10-30T03:33:31;100902.97;;;11.30;64.85
43621;BME280;29213;50.770;7.298;2022-10-30T03:35:57;100855.53;;;10.99;64.91
43621;BME280;29213;50.770;7.298;2022-10-30T03:38:23;101060.88;;;12.20;65.10
43621;BME280;29213;50.770;7.298;2022-10-30T03:40:49;100969.56;;;11.56;64.94
43621;BME280;29213;50.770;7.298;2022-10-30T03:43:14;100935.31;;;11.35;64.47
43621;BME280;29213;50.770;7.298;2022-10-30T03:45:48;100766.06;;;10.26;64.69
43621;BME280;29213;50.770;7.298;2022-10-30T03:48:14;101038.91;;;11.91;64.64
43621;BME280;29213;50.770;7.298;2022-10-30T03:50:40;100947.13;;;11.32;64.70
43621;BME280;29213;50.770;7.298;2022-10-30T03:53:05;101040.22;;;11.87;64.60
43621;BME280;29213;50.770;7.298;2022-10-30T03:55:31;101078.22;;;12.07;64.74
43621;BME280;29213;50.770;7.298;2022-10-30T03:57:56;100816.22;;;10.39;64.45
43621;BME280;29213;50.770;7.298;2022-10-30T04:00:22;100901.41;;;10.84;64.71
43621;BME280;29213;50.770;7.298;2022-10-30T04:02:49;101058.22;;;11.76;64.63
43621;BME280;29213;50.770;7.298;2022-10-30T04:05:17;101087.56;;;11.76;64.94
43621;BME280;29213;50.770;7.298;2022-10-30T04:07:43;101099.38;;;11.74;65.02
43621;BME280;29213;50.770;7.298;2022-10-30T04:10:10;100927.84;;;10.77;65.00
43621;BME280;29213;50.770;7.298;2022-10-30T04:12:35;100823.31;;;10.04;64.93
43621;BME280;29213;50.770;7.298;2022-10-30T04:15:02;101077.25;;;11.55;65.40
43621;BME280;29213;50.770;7.298;2022-10-30T04:17:27;101019.72;;;11.18;65.42
43621;BME280;29213;50.770;7.298;2022-10-30T04:19:53;101036.78;;;11.33;65.33
43621;BME280;29213;50.770;7.298;2022-10-30T04:22:18;101059.38;;;11.47;65.30
43621;BME280;29213;50.770;7.298;2022-10-30T04:24:43;100974.88;;;10.87;65.43
43621;BME280;29213;50.770;7.298;2022-10-30T04:27:10;101099.28;;;11.57;65.38
43621;BME280;29213;50.770;7.298;2022-10-30T04:29:37;101093.97;;;11.57;65.20
43621;BME280;29213;50.770;7.298;2022-10-30T04:32:03;101013.59;;;10.99;64.96
43621;BME280;29213;50.770;7.298;2022-10-30T04:34:28;101016.97;;;11.01;65.12
43621;BME280;29213;50.770;7.298;2022-10-30T04:36:54;101005.84;;;10.88;65.23
43621;BME280;29213;50.770;7.298;2022-10-30T04:39:19;101041.97;;;11.08;65.04
43621;BME280;29213;50.770;7.298;2022-10-30T04:41:45;100952.25;;;10.46;65.03
43621;BME280;29213;50.770;7.298;2022-10-30T04:44:10;100985.69;;;10.67;64.99
43621;BME280;29213;50.770;7.298;2022-10-30T04:46:36;101019.03;;;10.89;64.78
43621;BME280;29213;50.770;7.298;2022-10-30T04:49:01;101055.31;;;11.08;64.93
43621;BME280;29213;50.770;7.298;2022-10-30T04:51:27;101019.50;;;10.85;64.79
43621;BME280;29213;50.770;7.298;2022-10-30T04:53:52;100999.97;;;10.76;64.59
43621;BME280;29213;50.770;7.298;2022-10-30T04:56:18;101005.28;;;10.76;64.63
43621;BME280;29213;50.770;7.298;2022-10-30T04:58:44;100786.59;;;9.35;64.89
43621;BME280;29213;50.770;7.298;2022-10-30T05:01:09;100771.56;;;9.26;64.57
43621;BME280;29213;50.770;7.298;2022-10-30T05:03:34;101046.91;;;10.95;64.71
43621;BME280;29213;50.770;7.298;2022-10-30T05:06:02;101079.53;;;11.15;64.85
43621;BME280;29213;50.770;7.298;2022-10-30T05:08:28;101000.75;;;10.58;64.71
43621;BME280;29213;50.770;7.298;2022-10-30T05:10:55;100899.19;;;9.90;64.78
43621;BME280;29213;50.770;7.298;2022-10-30T05:13:20;101007.94;;;10.57;65.00
43621;BME280;29213;50.770;7.298;2022-10-30T05:15:46;100771.91;;;9.13;64.83
43621;BME280;29213;50.770;7.298;2022-10-30T05:18:11;101078.78;;;11.05;65.09
43621;BME280;29213;50.770;7.298;2022-10-30T05:20:37;101091.09;;;11.06;64.85
43621;BME280;29213;50.770;7.298;2022-10-30T05:23:02;101089.28;;;11.06;65.04
43621;BME280;29213;50.770;7.298;2022-10-30T05:25:28;101008.75;;;10.58;64.85
43621;BME280;29213;50.770;7.298;2022-10-30T05:28:01;101087.59;;;11.05;64.80
43621;BME280;29213;50.770;7.298;2022-10-30T05:30:30;100804.91;;;9.38;64.76
43621;BME280;29213;50.770;7.298;2022-10-30T05:32:58;101042.25;;;10.79;64.56
43621;BME280;29213;50.770;7.298;2022-10-30T05:35:23;101045.06;;;10.77;64.82
43621;BME280;29213;50.770;7.298;2022-10-30T05:37:49;100993.78;;;10.39;64.90
43621;BME280;29213;50.770;7.298;2022-10-30T05:40:14;101024.19;;;10.54;64.79
43621;BME280;29213;50.770;7.298;2022-10-30T05:42:47;101080.84;;;10.93;64.81
43621;BME280;29213;50.770;7.298;2022-10-30T05:45:13;101039.81;;;10.67;64.96
43621;BME280;29213;50.770;7.298;2022-10-30T05:47:39;101003.84;;;10.45;64.85
43621;BME280;29213;50.770;7.298;2022-10-30T05:50:05;101032.56;;;10.60;64.52
43621;BME280;29213;50.770;7.298;2022-10-30T05:52:31;100928.91;;;9.85;64.68
43621;BME280;29213;50.770;7.298;2022-10-30T05:54:56;100934.22;;;9.85;64.89
43621;BME280;29213;50.770;7.298;2022-10-30T05:57:22;100887.97;;;9.50;64.72
43621;BME280;29213;50.770;7.298;2022-10-30T05:59:47;100912.63;;;9.70;64.55
43621;BME280;29213;50.770;7.298;2022-10-30T06:02:13;100937.06;;;9.84;64.49
43621;BME280;29213;50.770;7.298;2022-10-30T06:04:38;100820.34;;;9.06;64.73
43621;BME280;29213;50.770;7.298;2022-10-30T06:07:04;101077.09;;;10.49;65.02
43621;BME280;29213;50.770;7.298;2022-10-30T06:09:29;101043.94;;;10.43;65.06
43621;BME280;29213;50.770;7.298;2022-10-30T06:11:54;101058.63;;;10.48;65.11
43621;BME280;29213;50.770;7.298;2022-10-30T06:14:20;100982.72;;;9.97;65.10
43621;BME280;29213;50.770;7.298;2022-10-30T06:16:46;101024.41;;;10.25;65.17
43621;BME280;29213;50.770;7.298;2022-10-30T06:19:12;100950.50;;;9.82;65.03
43621;BME280;29213;50.770;7.298;2022-10-30T06:21:37;100981.31;;;10.03;65.12
43621;BME280;29213;50.770;7.298;2022-10-30T06:24:03;101040.56;;;10.41;65.03
43621;BME280;29213;50.770;7.298;2022-10-30T06:26:28;100916.19;;;9.61;65.26
43621;BME280;29213;50.770;7.298;2022-10-30T06:28:54;100923.19;;;9.62;65.29
43621;BME280;29213;50.770;7.298;2022-10-30T06:31:19;100920.53;;;9.62;65.20
43621;BME280;29213;50.770;7.298;2022-10-30T06:33:45;100731.47;;;8.45;65.37
43621;BME280;29213;50.770;7.298;2022-10-30T06:36:10;100971.56;;;9.94;65.23
43621;BME280;29213;50.770;7.298;2022-10-30T06:38:36;101016.75;;;10.22;65.34
43621;BME280;29213;50.770;7.298;2022-10-30T06:41:01;101064.09;;;10.46;65.40
43621;BME280;29213;50.770;7.298;2022-10-30T06:43:26;100882.44;;;9.33;65.15
43621;BME280;29213;50.770;7.298;2022-10-30T06:45:52;101028.06;;;10.24;65.24
43621;BME280;29213;50.770;7.298;2022-10-30T06:48:17;101030.97;;;10.30;65.33
43621;BME280;29213;50.770;7.298;2022-10-30T06:50:43;101066.44;;;10.49;65.33
43621;BME280;29213;50.770;7.298;2022-10-30T06:53:08;100986.91;;;10.00;65.23
43621;BME280;29213;50.770;7.298;2022-10-30T06:55:34;101031.50;;;10.34;65.38
43621;BME280;29213;50.770;7.298;2022-10-30T06:57:59;100842.13;;;9.10;65.23
43621;BME280;29213;50.770;7.298;2022-10-30T07:00:25;101026.78;;;10.28;65.41
43621;BME280;29213;50.770;7.298;2022-10-30T07:02:56;101065.47;;;10.50;65.40
43621;BME280;29213;50.770;7.298;2022-10-30T07:05:21;101017.13;;;10.27;65.25
43621;BME280;29213;50.770;7.298;2022-10-30T07:07:46;101030.59;;;10.25;65.39
43621;BME280;29213;50.770;7.298;2022-10-30T07:10:12;100903.47;;;9.55;65.44
43621;BME280;29213;50.770;7.298;2022-10-30T07:12:37;101028.84;;;10.34;65.61
43621;BME280;29213;50.770;7.298;2022-10-30T07:15:03;101005.97;;;10.23;65.38
43621;BME280;29213;50.770;7.298;2022-10-30T07:17:28;100997.28;;;10.21;65.30
43621;BME280;29213;50.770;7.298;2022-10-30T07:19:54;100799.41;;;9.03;65.30
43621;BME280;29213;50.770;7.298;2022-10-30T07:22:19;101001.16;;;10.27;65.21
43621;BME280;29213;50.770;7.298;2022-10-30T07:24:44;101074.38;;;10.77;65.19
43621;BME280;29213;50.770;7.298;2022-10-30T07:27:10;100988.16;;;10.24;65.22
43621;BME280;29213;50.770;7.298;2022-10-30T07:29:35;100958.44;;;10.10;65.30
43621;BME280;29213;50.770;7.298;2022-10-30T07:32:01;101081.16;;;10.90;65.32
43621;BME280;29213;50.770;7.298;2022-10-30T07:34:26;100816.13;;;9.32;65.34
43621;BME280;29213;50.770;7.298;2022-10-30T07:36:52;100976.59;;;10.33;65.45
43621;BME280;29213;50.770;7.298;2022-10-30T07:39:17;101015.78;;;10.59;65.32
43621;BME280;29213;50.770;7.298;2022-10-30T07:41:43;100909.28;;;10.05;65.45
43621;BME280;29213;50.770;7.298;2022-10-30T07:44:09;100997.50;;;10.64;65.26
43621;BME280;29213;50.770;7.298;2022-10-30T07:46:34;100958.72;;;10.43;65.35
43621;BME280;29213;50.770;7.298;2022-10-30T07:49:00;101077.56;;;11.26;65.75
43621;BME280;29213;50.770;7.298;2022-10-30T07:51:25;100965.69;;;10.63;65.72
43621;BME280;29213;50.770;7.298;2022-10-30T07:53:51;101083.19;;;11.41;65.87
43621;BME280;29213;50.770;7.298;2022-10-30T07:56:16;101053.94;;;11.31;66.03
43621;BME280;29213;50.770;7.298;2022-10-30T07:58:41;101082.94;;;11.52;66.27
43621;BME280;29213;50.770;7.298;2022-10-30T08:01:07;100968.81;;;10.76;66.60
43621;BME280;29213;50.770;7.298;2022-10-30T08:03:32;101090.59;;;11.29;67.42
43621;BME280;29213;50.770;7.298;2022-10-30T08:05:58;100958.09;;;10.32;67.83
43621;BME280;29213;50.770;7.298;2022-10-30T08:08:23;101028.13;;;10.78;68.02
43621;BME280;29213;50.770;7.298;2022-10-30T08:10:48;100948.69;;;10.19;68.02
43621;BME280;29213;50.770;7.298;2022-10-30T08:13:14;101031.31;;;10.82;68.30
43621;BME280;29213;50.770;7.298;2022-10-30T08:15:41;101082.91;;;11.26;68.37
43621;BME280;29213;50.770;7.298;2022-10-30T08:18:06;101078.50;;;11.34;68.10
43621;BME280;29213;50.770;7.298;2022-10-30T08:20:32;101028.66;;;11.08;67.52
43621;BME280;29213;50.770;7.298;2022-10-30T08:22:57;101079.03;;;11.46;67.45
43621;BME280;29213;50.770;7.298;2022-10-30T08:25:26;101089.88;;;11.71;67.29
43621;BME280;29213;50.770;7.298;2022-10-30T08:27:55;101078.56;;;11.86;66.87
43621;BME280;29213;50.770;7.298;2022-10-30T08:30:22;101055.41;;;11.86;66.48
43621;BME280;29213;50.770;7.298;2022-10-30T08:32:48;101078.06;;;12.17;66.19
43621;BME280;29213;50.770;7.298;2022-10-30T08:35:14;101077.41;;;12.32;65.97
43621;BME280;29213;50.770;7.298;2022-10-30T08:37:40;101081.63;;;12.42;65.59
43621;BME280;29213;50.770;7.298;2022-10-30T08:40:07;101078.47;;;12.55;65.47
43621;BME280;29213;50.770;7.298;2022-10-30T08:42:32;100972.75;;;12.03;64.60
43621;BME280;29213;50.770;7.298;2022-10-30T08:44:58;101031.06;;;12.49;64.30
43621;BME280;29213;50.770;7.298;2022-10-30T08:47:23;101066.63;;;12.66;64.34
43621;BME280;29213;50.770;7.298;2022-10-30T08:49:48;100958.56;;;12.36;64.23
43621;BME280;29213;50.770;7.298;2022-10-30T08:52:14;101054.94;;;12.92;63.39
43621;BME280;29213;50.770;7.298;2022-10-30T08:54:39;100988.63;;;12.63;63.45
43621;BME280;29213;50.770;7.298;2022-10-30T08:57:04;100975.28;;;12.63;63.50
43621;BME280;29213;50.770;7.298;2022-10-30T08:59:30;101057.59;;;13.17;63.11
43621;BME280;29213;50.770;7.298;2022-10-30T09:01:55;101014.00;;;13.00;62.98
43621;BME280;29213;50.770;7.298;2022-10-30T09:04:21;100913.66;;;12.39;63.00
43621;BME280;29213;50.770;7.298;2022-10-30T09:06:46;101071.47;;;13.29;63.08
43621;BME280;29213;50.770;7.298;2022-10-30T09:09:11;100982.63;;;12.77;62.97
43621;BME280;29213;50.770;7.298;2022-10-30T09:11:38;100991.59;;;12.93;63.17
43621;BME280;29213;50.770;7.298;2022-10-30T09:14:04;101053.06;;;13.34;63.06
43621;BME280;29213;50.770;7.298;2022-10-30T09:16:29;101061.06;;;13.43;63.10
43621;BME280;29213;50.770;7.298;2022-10-30T09:18:54;101020.16;;;13.26;63.38
43621;BME280;29213;50.770;7.298;2022-10-30T09:21:20;101026.28;;;13.43;63.11
43621;BME280;29213;50.770;7.298;2022-10-30T09:23:45;101015.41;;;13.44;62.97
43621;BME280;29213;50.770;7.298;2022-10-30T09:26:10;100986.69;;;13.38;62.90
43621;BME280;29213;50.770;7.298;2022-10-30T09:28:36;101040.22;;;13.78;62.30
43621;BME280;29213;50.770;7.298;2022-10-30T09:31:02;100970.97;;;13.35;62.31
43621;BME280;29213;50.770;7.298;2022-10-30T09:33:27;101059.38;;;13.98;61.92
43621;BME280;29213;50.770;7.298;2022-10-30T09:35:53;101057.56;;;13.90;62.21
43621;BME280;29213;50.770;7.298;2022-10-30T09:38:18;101068.53;;;14.04;61.64
43621;BME280;29213;50.770;7.298;2022-10-30T09:47:33;101050.44;;;14.14;61.41
43621;BME280;29213;50.770;7.298;2022-10-30T09:55:32;101047.47;;;14.33;60.68
43621;BME280;29213;50.770;7.298;2022-10-30T09:58:19;101040.38;;;14.40;60.57
43621;BME280;29213;50.770;7.298;2022-10-30T10:01:03;100981.94;;;14.20;60.35
43621;BME280;29213;50.770;7.298;2022-10-30T10:03:53;100968.84;;;14.25;59.84
43621;BME280;29213;50.770;7.298;2022-10-30T10:06:22;100968.28;;;14.30;59.58
43621;BME280;29213;50.770;7.298;2022-10-30T10:08:53;100899.69;;;13.97;59.66
43621;BME280;29213;50.770;7.298;2022-10-30T10:11:24;100993.97;;;14.63;60.07
43621;BME280;29213;50.770;7.298;2022-10-30T10:13:55;100915.81;;;14.36;59.04
43621;BME280;29213;50.770;7.298;2022-10-30T10:16:27;100974.16;;;14.87;59.28
43621;BME280;29213;50.770;7.298;2022-10-30T10:19:06;101009.72;;;15.34;58.81
43621;BME280;29213;50.770;7.298;2022-10-30T10:21:37;100937.34;;;14.96;56.54
43621;BME280;29213;50.770;7.298;2022-10-30T10:24:17;100975.66;;;15.20;56.19
43621;BME280;29213;50.770;7.298;2022-10-30T10:26:58;101016.84;;;15.57;56.14
43621;BME280;29213;50.770;7.298;2022-10-30T10:29:31;101012.31;;;15.58;54.97
43621;BME280;29213;50.770;7.298;2022-10-30T10:32:09;101011.63;;;15.71;55.51
43621;BME280;29213;50.770;7.298;2022-10-30T10:34:55;101022.34;;;15.71;55.00
43621;BME280;29213;50.770;7.298;2022-10-30T10:37:30;101017.53;;;15.81;55.01
43621;BME280;29213;50.770;7.298;2022-10-30T10:40:22;101011.78;;;15.84;53.95
43621;BME280;29213;50.770;7.298;2022-10-30T10:43:00;101016.53;;;15.82;53.77
43621;BME280;29213;50.770;7.298;2022-10-30T10:45:43;101008.53;;;15.89;54.71
43621;BME280;29213;50.770;7.298;2022-10-30T10:50:47;100947.84;;;15.73;54.44
43621;BME280;29213;50.770;7.298;2022-10-30T10:53:23;101011.53;;;16.16;53.41
43621;BME280;29213;50.770;7.298;2022-10-30T10:55:53;101010.06;;;16.35;53.52
43621;BME280;29213;50.770;7.298;2022-10-30T10:58:30;101011.81;;;16.43;54.23
43621;BME280;29213;50.770;7.298;2022-10-30T11:00:58;100967.78;;;16.22;53.00
43621;BME280;29213;50.770;7.298;2022-10-30T11:06:17;100899.06;;;15.91;53.56
43621;BME280;29213;50.770;7.298;2022-10-30T11:08:44;100972.53;;;16.42;52.71
43621;BME280;29213;50.770;7.298;2022-10-30T11:11:10;100985.63;;;16.52;52.39
43621;BME280;29213;50.770;7.298;2022-10-30T11:13:37;101006.22;;;16.66;52.01
43621;BME280;29213;50.770;7.298;2022-10-30T11:16:23;100977.41;;;16.60;52.64
43621;BME280;29213;50.770;7.298;2022-10-30T11:18:55;101010.94;;;16.86;52.23
43621;BME280;29213;50.770;7.298;2022-10-30T11:21:23;101018.47;;;16.98;52.82
43621;BME280;29213;50.770;7.298;2022-10-30T11:23:49;101007.81;;;17.11;53.23
43621;BME280;29213;50.770;7.298;2022-10-30T11:28:49;101001.31;;;17.34;52.24
43621;BME280;29213;50.770;7.298;2022-10-30T11:33:52;100949.50;;;17.25;51.80
43621;BME280;29213;50.770;7.298;2022-10-30T11:36:21;100995.19;;;17.54;50.95
43621;BME280;29213;50.770;7.298;2022-10-30T11:38:47;100938.75;;;17.25;50.61
43621;BME280;29213;50.770;7.298;2022-10-30T11:41:13;100957.03;;;17.36;51.09
43621;BME280;29213;50.770;7.298;2022-10-30T11:43:39;100958.47;;;17.39;50.52
43621;BME280;29213;50.770;7.298;2022-10-30T11:46:11;100963.06;;;17.52;50.17
43621;BME280;29213;50.770;7.298;2022-10-30T11:48:43;100989.88;;;17.67;49.73
43621;BME280;29213;50.770;7.298;2022-10-30T11:51:10;100853.28;;;16.85;50.55
43621;BME280;29213;50.770;7.298;2022-10-30T11:53:41;100956.66;;;17.53;49.70
43621;BME280;29213;50.770;7.298;2022-10-30T11:56:18;100987.03;;;17.82;49.62
43621;BME280;29213;50.770;7.298;2022-10-30T11:58:50;100945.91;;;17.60;49.44
43621;BME280;29213;50.770;7.298;2022-10-30T12:01:21;100976.69;;;17.93;49.89
43621;BME280;29213;50.770;7.298;2022-10-30T12:03:47;100976.91;;;17.91;49.05
43621;BME280;29213;50.770;7.298;2022-10-30T12:06:25;100976.22;;;17.75;47.36
43621;BME280;29213;50.770;7.298;2022-10-30T12:11:31;100920.59;;;17.47;48.47
43621;BME280;29213;50.770;7.298;2022-10-30T12:13:57;100955.28;;;17.78;48.04
43621;BME280;29213;50.770;7.298;2022-10-30T12:16:23;100970.25;;;17.87;47.87
43621;BME280;29213;50.770;7.298;2022-10-30T12:19:07;100958.84;;;17.85;47.56
43621;BME280;29213;50.770;7.298;2022-10-30T12:21:47;100946.19;;;17.85;47.31
43621;BME280;29213;50.770;7.298;2022-10-30T12:24:18;100920.84;;;17.66;48.40
43621;BME280;29213;50.770;7.298;2022-10-30T12:26:47;100936.28;;;17.86;47.70
43621;BME280;29213;50.770;7.298;2022-10-30T12:29:16;100968.84;;;18.11;47.81
43621;BME280;29213;50.770;7.298;2022-10-30T12:31:53;100971.97;;;18.15;47.32
43621;BME280;29213;50.770;7.298;2022-10-30T12:37:04;100945.44;;;18.12;47.19
43621;BME280;29213;50.770;7.298;2022-10-30T12:39:52;100929.25;;;17.98;46.97
43621;BME280;29213;50.770;7.298;2022-10-30T12:42:21;100891.28;;;17.80;46.54
43621;BME280;29213;50.770;7.298;2022-10-30T12:45:12;100888.81;;;17.85;47.27
43621;BME280;29213;50.770;7.298;2022-10-30T12:47:46;100905.63;;;17.94;46.88
43621;BME280;29213;50.770;7.298;2022-10-30T12:50:19;100953.94;;;18.36;47.10
43621;BME280;29213;50.770;7.298;2022-10-30T12:55:55;100958.06;;;18.45;47.52
43621;BME280;29213;50.770;7.298;2022-10-30T12:58:32;100960.97;;;18.50;49.11
43621;BME280;29213;50.770;7.298;2022-10-30T13:04:09;100916.41;;;18.41;51.72
43621;BME280;29213;50.770;7.298;2022-10-30T13:09:21;100969.88;;;18.91;53.98
43621;BME280;29213;50.770;7.298;2022-10-30T13:14:39;100943.53;;;18.87;49.40
43621;BME280;29213;50.770;7.298;2022-10-30T13:17:13;100933.56;;;18.87;48.82
43621;BME280;29213;50.770;7.298;2022-10-30T13:19:40;100951.00;;;18.98;48.24
43621;BME280;29213;50.770;7.298;2022-10-30T13:22:13;100883.44;;;18.52;48.00
43621;BME280;29213;50.770;7.298;2022-10-30T13:27:49;100949.34;;;18.90;47.48
43621;BME280;29213;50.770;7.298;2022-10-30T13:30:19;100941.06;;;18.85;48.40
43621;BME280;29213;50.770;7.298;2022-10-30T13:33:14;100858.97;;;18.20;47.95
43621;BME280;29213;50.770;7.298;2022-10-30T13:36:11;100958.50;;;18.76;48.38
43621;BME280;29213;50.770;7.298;2022-10-30T13:41:56;100952.69;;;18.79;47.81
43621;BME280;29213;50.770;7.298;2022-10-30T13:44:55;100936.31;;;18.74;47.25
43621;BME280;29213;50.770;7.298;2022-10-30T13:47:36;100933.81;;;18.72;47.79
43621;BME280;29213;50.770;7.298;2022-10-30T13:50:15;100931.94;;;18.66;47.25
43621;BME280;29213;50.770;7.298;2022-10-30T13:52:46;100918.91;;;18.56;47.31
43621;BME280;29213;50.770;7.298;2022-10-30T13:55:30;100737.09;;;17.44;47.07